Time;durP1;ratioP1;P1;durP2;ratioP2;P2;SDS_P1;SDS_P2;PMS_P1;PMS_P2;Temp;Humidity;BMP_temperature;BMP_pressure;BME280_temperature;BME280_humidity;BME280_pressure;Samples;Min_cycle;Max_cycle;Signal;HPM_P1;HPM_P2
2022/06/21 00:00:44;;;;;;;10.82;3.72;;;12.70;99.90;;;;;;5091015;28;20040;-71
2022/06/21 00:03:16;;;;;;;11.05;2.92;;;12.60;99.90;;;;;;5091378;28;20046;-71
2022/06/21 00:05:44;;;;;;;6.25;3.15;;;12.60;99.90;;;;;;5091331;28;20576;-71
2022/06/21 00:08:16;;;;;;;9.48;3.00;;;12.60;99.90;;;;;;5091348;28;20054;-71
2022/06/21 00:10:42;;;;;;;7.57;2.67;;;12.60;99.90;;;;;;5090938;28;20047;-71
2022/06/21 00:13:11;;;;;;;12.75;4.25;;;12.70;99.90;;;;;;5093309;28;20051;-71
2022/06/21 00:15:38;;;;;;;11.40;2.92;;;12.60;99.90;;;;;;5094919;28;20051;-71
2022/06/21 00:18:08;;;;;;;10.75;2.38;;;12.60;99.90;;;;;;5094991;28;20071;-71
2022/06/21 00:20:33;;;;;;;8.13;2.92;;;12.60;99.90;;;;;;5093260;28;20040;-71
2022/06/21 00:22:59;;;;;;;9.93;3.05;;;12.60;99.90;;;;;;5094653;28;20040;-71
2022/06/21 00:25:27;;;;;;;9.35;2.90;;;12.60;99.90;;;;;;5093333;28;20036;-71
2022/06/21 00:27:54;;;;;;;6.13;2.55;;;12.60;99.90;;;;;;5093282;28;20078;-71
2022/06/21 00:30:21;;;;;;;8.18;3.08;;;12.60;99.90;;;;;;5093252;28;20047;-70
2022/06/21 00:32:49;;;;;;;6.18;3.05;;;12.50;99.90;;;;;;5094373;28;20054;-70
2022/06/21 00:35:17;;;;;;;8.32;2.97;;;12.60;99.90;;;;;;5093410;28;20119;-71
2022/06/21 00:37:44;;;;;;;11.43;2.47;;;12.60;99.90;;;;;;5094367;28;20513;-71
2022/06/21 00:40:32;;;;;;;7.15;2.50;;;12.60;99.90;;;;;;5092799;28;20062;-71
2022/06/21 00:43:09;;;;;;;12.20;2.95;;;12.60;99.90;;;;;;5094359;28;20040;-70
2022/06/21 00:45:44;;;;;;;8.60;2.72;;;12.50;99.90;;;;;;5093337;28;20394;-71
2022/06/21 00:48:24;;;;;;;10.43;2.92;;;12.60;99.90;;;;;;5094317;28;20040;-71
2022/06/21 00:51:22;;;;;;;10.25;2.80;;;12.50;99.90;;;;;;5093917;28;20428;-71
2022/06/21 00:53:56;;;;;;;5.57;2.92;;;12.50;99.90;;;;;;5094302;28;20051;-71
2022/06/21 00:56:25;;;;;;;6.68;2.95;;;12.50;99.90;;;;;;5076088;28;20120;-70
2022/06/21 00:58:50;;;;;;;7.78;2.88;;;12.40;99.90;;;;;;5094107;28;20043;-71
2022/06/21 01:01:29;;;;;;;6.10;2.83;;;12.40;99.90;;;;;;5092294;28;20048;-70
2022/06/21 01:04:00;;;;;;;6.35;2.95;;;12.40;99.90;;;;;;5093910;28;20440;-71
2022/06/21 01:06:31;;;;;;;9.52;3.10;;;12.40;99.90;;;;;;5094083;28;20044;-71
2022/06/21 01:09:07;;;;;;;7.13;3.00;;;12.40;99.90;;;;;;5093956;28;20044;-71
2022/06/21 01:11:41;;;;;;;11.55;2.97;;;12.30;99.90;;;;;;5093362;28;20032;-71
2022/06/21 01:14:08;;;;;;;9.05;3.30;;;12.40;99.90;;;;;;5094014;28;20040;-71
2022/06/21 01:16:35;;;;;;;5.60;2.75;;;12.40;99.90;;;;;;5093900;28;20036;-71
2022/06/21 01:19:02;;;;;;;7.03;2.88;;;12.30;99.90;;;;;;5093781;28;20040;-71
2022/06/21 01:21:30;;;;;;;11.48;4.07;;;12.30;99.90;;;;;;5093231;28;20115;-71
2022/06/21 01:24:13;;;;;;;7.93;3.00;;;12.30;99.90;;;;;;5090986;28;20493;-70
2022/06/21 01:27:01;;;;;;;9.02;3.03;;;12.30;99.90;;;;;;5092267;28;20119;-70
2022/06/21 01:29:30;;;;;;;10.40;2.92;;;12.30;99.90;;;;;;5093571;28;20043;-71
2022/06/21 01:32:00;;;;;;;7.32;3.08;;;12.30;99.90;;;;;;5091549;28;20040;-71
2022/06/21 01:34:27;;;;;;;8.20;3.30;;;12.30;99.90;;;;;;5093363;28;20048;-71
2022/06/21 01:36:56;;;;;;;13.65;2.97;;;12.30;99.90;;;;;;5092242;28;20101;-71
2022/06/21 01:39:26;;;;;;;7.78;3.67;;;12.20;99.90;;;;;;5093411;28;20040;-71
2022/06/21 01:41:58;;;;;;;7.70;2.92;;;12.20;99.90;;;;;;5092654;28;20498;-71
2022/06/21 01:44:32;;;;;;;9.27;3.35;;;12.20;99.90;;;;;;5091899;28;20401;-71
2022/06/21 01:47:01;;;;;;;7.88;2.85;;;12.20;99.90;;;;;;5091931;28;20127;-71
2022/06/21 01:49:31;;;;;;;8.05;3.10;;;12.20;99.90;;;;;;5093260;28;20045;-70
2022/06/21 01:52:08;;;;;;;5.28;2.97;;;12.20;99.90;;;;;;5091672;28;20044;-71
2022/06/21 01:54:42;;;;;;;7.60;3.60;;;12.30;99.90;;;;;;5093071;28;20040;-70
2022/06/21 01:57:09;;;;;;;5.72;3.00;;;12.20;99.90;;;;;;5092981;28;20040;-70
2022/06/21 01:59:39;;;;;;;8.88;3.28;;;12.30;99.90;;;;;;5091759;28;20083;-70
2022/06/21 02:02:15;;;;;;;5.20;2.63;;;12.30;99.90;;;;;;5092452;28;20084;-70
2022/06/21 02:04:52;;;;;;;5.30;2.60;;;12.20;99.90;;;;;;5091601;28;20072;-70
2022/06/21 02:07:22;;;;;;;8.32;2.42;;;12.10;99.90;;;;;;5092753;28;20044;-70
2022/06/21 02:09:58;;;;;;;8.70;3.08;;;12.10;99.90;;;;;;5092600;28;20065;-70
2022/06/21 02:12:25;;;;;;;6.32;2.90;;;12.10;99.90;;;;;;5091345;28;20036;-70
2022/06/21 02:14:55;;;;;;;5.85;2.58;;;12.00;99.90;;;;;;5091306;28;20044;-70
2022/06/21 02:17:25;;;;;;;8.20;3.40;;;12.10;99.90;;;;;;5092654;28;20044;-70
2022/06/21 02:20:04;;;;;;;8.00;3.30;;;12.10;99.90;;;;;;5092456;28;20064;-70
2022/06/21 02:22:31;;;;;;;7.85;3.25;;;12.00;99.90;;;;;;5092200;28;20047;-71
2022/06/21 02:24:57;;;;;;;8.18;4.03;;;12.00;99.90;;;;;;5092590;28;20298;-70
2022/06/21 02:27:27;;;;;;;6.50;3.08;;;12.00;99.90;;;;;;5092511;28;20060;-71
2022/06/21 02:29:55;;;;;;;14.63;4.38;;;11.90;99.90;;;;;;5092273;28;20036;-71
2022/06/21 02:32:34;;;;;;;7.25;3.97;;;11.90;99.90;;;;;;5092187;28;20123;-71
2022/06/21 02:35:23;;;;;;;13.82;4.40;;;11.80;99.90;;;;;;5091965;28;20044;-71
2022/06/21 02:37:53;;;;;;;9.80;3.97;;;11.80;99.90;;;;;;5092800;28;20040;-71
2022/06/21 02:40:32;;;;;;;7.43;4.15;;;11.80;99.90;;;;;;5092959;28;20040;-70
2022/06/21 02:43:05;;;;;;;8.45;4.05;;;11.80;99.90;;;;;;5092984;28;20036;-70
2022/06/21 02:45:54;;;;;;;12.88;4.40;;;11.70;99.90;;;;;;5092584;28;20040;-71
2022/06/21 02:48:28;;;;;;;11.55;4.38;;;11.70;99.90;;;;;;5092680;28;20043;-70
2022/06/21 02:51:02;;;;;;;7.25;3.90;;;11.80;99.90;;;;;;5092129;28;20047;-70
2022/06/21 02:53:33;;;;;;;5.68;4.05;;;11.80;99.90;;;;;;5092337;28;20081;-71
2022/06/21 02:56:22;;;;;;;8.15;3.55;;;11.80;99.90;;;;;;5091038;28;20683;-72
2022/06/21 02:58:51;;;;;;;5.72;3.67;;;11.80;99.90;;;;;;5091963;28;20517;-70
2022/06/21 03:01:34;;;;;;;10.82;4.18;;;11.80;99.90;;;;;;5090413;28;20052;-71
2022/06/21 03:04:00;;;;;;;9.20;3.83;;;11.70;99.90;;;;;;5091929;28;20097;-71
2022/06/21 03:06:28;;;;;;;9.55;3.70;;;11.70;99.90;;;;;;5091824;28;20046;-71
2022/06/21 03:09:01;;;;;;;10.02;3.92;;;11.80;99.90;;;;;;5091904;28;20075;-70
2022/06/21 03:11:31;;;;;;;7.32;4.38;;;11.70;99.90;;;;;;5090272;28;20115;-70
2022/06/21 03:14:02;;;;;;;7.78;3.47;;;11.80;99.90;;;;;;5091753;28;20047;-70
2022/06/21 03:16:28;;;;;;;10.15;4.10;;;11.70;99.90;;;;;;5091748;28;20044;-70
2022/06/21 03:19:00;;;;;;;8.57;4.20;;;11.60;99.90;;;;;;5091707;28;20032;-71
2022/06/21 03:21:31;;;;;;;9.20;3.70;;;11.60;99.90;;;;;;5091541;28;20070;-71
2022/06/21 03:23:58;;;;;;;7.38;3.97;;;11.60;99.90;;;;;;5091828;28;20040;-70
2022/06/21 03:26:28;;;;;;;10.30;3.85;;;11.60;99.90;;;;;;5091760;28;20122;-71
2022/06/21 03:28:54;;;;;;;7.53;4.28;;;11.60;99.90;;;;;;5073051;28;20402;-71
2022/06/21 03:31:35;;;;;;;8.43;4.18;;;11.60;99.90;;;;;;5069600;28;20048;-71
2022/06/21 03:34:09;;;;;;;7.35;3.83;;;11.60;99.90;;;;;;5071579;28;20052;-71
2022/06/21 03:36:35;;;;;;;7.95;4.15;;;11.70;99.90;;;;;;5071563;28;20032;-72
2022/06/21 03:39:04;;;;;;;7.28;4.05;;;11.60;99.90;;;;;;5071423;28;20041;-71
2022/06/21 03:41:43;;;;;;;6.28;4.18;;;11.60;99.90;;;;;;5070953;28;20044;-71
2022/06/21 03:44:22;;;;;;;5.82;3.92;;;11.70;99.90;;;;;;5071374;28;20483;-71
2022/06/21 03:46:51;;;;;;;7.65;4.60;;;11.60;99.90;;;;;;5071480;28;20072;-71
2022/06/21 03:49:32;;;;;;;6.13;3.88;;;11.60;99.90;;;;;;5075215;28;20032;-71
2022/06/21 03:52:02;;;;;;;6.70;4.25;;;11.60;99.90;;;;;;5074587;28;20414;-71
2022/06/21 03:54:33;;;;;;;7.32;3.30;;;11.70;99.90;;;;;;5078365;28;20056;-71
2022/06/21 03:57:05;;;;;;;6.63;2.15;;;11.70;99.90;;;;;;5087048;28;20040;-71
2022/06/21 03:59:48;;;;;;;5.32;2.72;;;11.60;99.90;;;;;;5095582;28;20406;-71
2022/06/21 04:02:20;;;;;;;5.22;2.28;;;11.70;99.90;;;;;;5094891;28;20044;-71
2022/06/21 04:05:11;;;;;;;1.85;1.60;;;11.70;99.90;;;;;;5094251;28;20039;-71
2022/06/21 04:07:47;;;;;;;3.67;1.90;;;11.60;99.90;;;;;;5095076;28;20043;-72
2022/06/21 04:10:31;;;;;;;3.58;2.05;;;11.60;99.90;;;;;;5094866;28;20063;-72
2022/06/21 04:13:29;;;;;;;2.63;1.70;;;11.60;99.90;;;;;;5094824;28;20501;-71
2022/06/21 04:16:22;;;;;;;2.67;2.00;;;11.70;99.90;;;;;;5093732;28;20039;-71
2022/06/21 04:19:09;;;;;;;4.20;2.80;;;11.70;99.90;;;;;;5094863;28;20042;-71
2022/06/21 04:21:45;;;;;;;5.75;2.40;;;11.70;99.90;;;;;;5094312;28;20482;-72
2022/06/21 04:24:29;;;;;;;3.55;2.20;;;11.80;99.90;;;;;;5076623;28;20043;-72
2022/06/21 04:27:01;;;;;;;3.47;2.45;;;11.90;99.90;;;;;;5094810;28;20036;-72
2022/06/21 04:29:53;;;;;;;4.30;2.90;;;11.90;99.90;;;;;;5094568;28;20148;-72
2022/06/21 04:32:31;;;;;;;4.32;2.22;;;11.90;99.90;;;;;;5110086;22;20132;-75
2022/06/21 04:35:02;;;;;;;3.90;3.20;;;12.00;99.90;;;;;;5056062;28;20036;-75
2022/06/21 04:37:39;;;;;;;6.10;3.45;;;12.10;99.90;;;;;;5074179;28;20040;-75
2022/06/21 04:40:15;;;;;;;5.95;3.50;;;12.10;99.90;;;;;;5056101;28;20039;-75
2022/06/21 04:42:55;;;;;;;6.75;3.83;;;12.20;99.90;;;;;;5055313;28;20044;-75
2022/06/21 04:45:36;;;;;;;8.10;4.05;;;12.30;99.90;;;;;;5055860;28;20040;-75
2022/06/21 04:48:30;;;;;;;6.13;4.68;;;12.40;99.90;;;;;;5055962;28;20028;-75
2022/06/21 04:51:11;;;;;;;9.80;5.70;;;12.40;99.90;;;;;;5055553;28;20154;-75
2022/06/21 04:53:48;;;;;;;6.55;4.40;;;12.50;99.90;;;;;;5055807;28;20150;-75
2022/06/21 04:56:24;;;;;;;7.00;5.68;;;12.50;99.90;;;;;;5039455;28;20692;-75
2022/06/21 04:58:50;;;;;;;6.90;5.22;;;12.60;99.90;;;;;;5038829;28;20123;-75
2022/06/21 05:01:29;;;;;;;8.25;5.90;;;12.60;99.90;;;;;;5055107;28;20554;-74
2022/06/21 05:03:58;;;;;;;9.77;5.80;;;12.70;99.90;;;;;;5055533;28;20074;-74
2022/06/21 05:06:24;;;;;;;10.65;5.93;;;12.90;99.90;;;;;;5055583;28;20048;-74
2022/06/21 05:08:51;;;;;;;8.88;5.00;;;13.00;99.90;;;;;;5055581;28;20122;-74
2022/06/21 05:11:17;;;;;;;8.93;5.35;;;13.40;99.90;;;;;;5038655;28;20040;-74
2022/06/21 05:13:48;;;;;;;8.35;4.90;;;13.50;99.90;;;;;;5055414;28;20074;-74
2022/06/21 05:16:26;;;;;;;10.52;5.30;;;13.60;99.90;;;;;;5055621;28;20047;-74
2022/06/21 05:19:00;;;;;;;9.85;5.53;;;13.70;99.90;;;;;;5055301;28;20490;-74
2022/06/21 05:21:35;;;;;;;6.65;4.78;;;13.80;99.90;;;;;;5055325;28;20048;-74
2022/06/21 05:24:02;;;;;;;8.10;5.30;;;13.80;99.90;;;;;;5056331;28;20037;-75
2022/06/21 05:26:42;;;;;;;6.93;3.83;;;13.90;99.90;;;;;;5055322;28;20114;-75
2022/06/21 05:29:45;;;;;;;6.50;3.92;;;13.90;99.90;;;;;;5055218;28;20513;-75
2022/06/21 05:32:19;;;;;;;10.48;3.88;;;14.00;99.90;;;;;;5054921;28;20127;-74
2022/06/21 05:34:49;;;;;;;7.97;4.40;;;14.20;99.90;;;;;;5055402;28;20110;-74
2022/06/21 05:37:25;;;;;;;8.55;3.53;;;14.30;99.90;;;;;;5055088;28;20040;-74
2022/06/21 05:39:52;;;;;;;5.30;3.20;;;14.40;99.90;;;;;;5038340;28;20045;-74
2022/06/21 05:42:21;;;;;;;5.80;3.03;;;14.80;99.90;;;;;;5038038;28;20041;-74
2022/06/21 05:44:53;;;;;;;8.85;3.30;;;15.30;99.90;;;;;;5038201;28;20095;-74
2022/06/21 05:47:28;;;;;;;7.50;3.13;;;15.60;99.90;;;;;;5073069;28;20044;-74
2022/06/21 05:49:56;;;;;;;6.40;2.85;;;16.10;99.90;;;;;;5054482;28;20036;-74
2022/06/21 05:52:32;;;;;;;5.28;2.53;;;16.70;99.90;;;;;;5054536;28;20037;-74
2022/06/21 05:55:07;;;;;;;3.83;2.53;;;16.90;99.90;;;;;;5054723;28;20047;-73
2022/06/21 05:57:44;;;;;;;7.53;2.00;;;17.20;99.90;;;;;;5054637;28;20048;-73
2022/06/21 06:00:32;;;;;;;3.40;1.88;;;17.40;99.90;;;;;;5054681;28;20066;-73
2022/06/21 06:03:10;;;;;;;3.72;1.67;;;17.80;99.90;;;;;;5054438;28;20036;-73
2022/06/21 06:05:37;;;;;;;10.63;3.10;;;18.30;99.90;;;;;;5037996;28;20055;-73
2022/06/21 06:08:11;;;;;;;5.25;1.50;;;18.60;99.90;;;;;;5054461;28;20119;-75
2022/06/21 06:10:38;;;;;;;10.07;1.67;;;18.90;99.90;;;;;;5053442;28;20041;-74
2022/06/21 06:13:10;;;;;;;5.63;1.30;;;19.30;99.90;;;;;;5054388;28;20056;-74
2022/06/21 06:15:52;;;;;;;6.18;1.95;;;19.30;99.90;;;;;;5054450;28;20055;-74
2022/06/21 06:19:03;;;;;;;5.55;2.25;;;19.20;99.90;;;;;;5054260;28;20033;-75
2022/06/21 06:21:35;;;;;;;11.35;1.70;;;19.40;99.50;;;;;;5053902;28;20422;-73
2022/06/21 06:24:11;;;;;;;4.97;1.65;;;19.20;99.90;;;;;;5054057;28;20544;-73
2022/06/21 06:26:40;;;;;;;4.30;1.70;;;19.10;99.30;;;;;;5071968;28;20518;-74
2022/06/21 06:29:05;;;;;;;8.40;2.20;;;18.60;99.90;;;;;;5054015;28;20056;-73
2022/06/21 06:31:40;;;;;;;4.97;1.38;;;18.30;99.90;;;;;;5053596;28;20040;-73
2022/06/21 06:34:11;;;;;;;7.25;1.83;;;18.60;99.90;;;;;;5053690;28;20040;-73
2022/06/21 06:36:43;;;;;;;8.80;2.20;;;19.10;99.90;;;;;;5037282;28;20055;-73
2022/06/21 06:39:21;;;;;;;7.20;2.92;;;19.70;99.40;;;;;;5053941;28;20212;-73
2022/06/21 06:41:58;;;;;;;16.73;1.73;;;19.30;98.00;;;;;;5053386;28;20468;-74
2022/06/21 06:44:32;;;;;;;5.38;1.63;;;19.30;98.60;;;;;;5053696;28;20036;-74
2022/06/21 06:47:01;;;;;;;6.43;1.73;;;19.30;98.70;;;;;;5053717;28;20041;-74
2022/06/21 06:49:40;;;;;;;5.03;1.77;;;19.30;98.20;;;;;;5071936;28;20036;-73
2022/06/21 06:52:11;;;;;;;4.85;1.70;;;19.60;98.40;;;;;;5053134;28;20102;-73
2022/06/21 06:54:54;;;;;;;6.28;2.58;;;20.10;97.70;;;;;;5053518;28;20087;-73
2022/06/21 06:57:32;;;;;;;15.23;4.35;;;20.30;95.90;;;;;;5053833;28;20137;-73
2022/06/21 07:00:33;;;;;;;6.95;1.88;;;20.30;94.40;;;;;;5053372;28;20048;-73
2022/06/21 07:03:16;;;;;;;6.20;1.42;;;20.50;94.60;;;;;;5040114;28;20482;-72
2022/06/21 07:05:52;;;;;;;4.10;1.25;;;20.50;94.00;;;;;;5053812;28;20040;-73
2022/06/21 07:08:26;;;;;;;5.47;1.75;;;20.40;93.80;;;;;;5053571;28;20466;-74
2022/06/21 07:10:54;;;;;;;7.65;1.65;;;20.60;93.10;;;;;;5053281;28;20465;-73
2022/06/21 07:13:20;;;;;;;7.22;1.50;;;20.50;93.60;;;;;;5053572;28;20049;-69
2022/06/21 07:15:49;;;;;;;4.80;1.60;;;20.30;93.60;;;;;;5053421;28;20044;-70
2022/06/21 07:18:27;;;;;;;4.65;1.35;;;19.90;94.10;;;;;;5053493;28;20119;-70
2022/06/21 07:20:52;;;;;;;6.88;1.70;;;20.30;94.50;;;;;;5053026;28;20052;-69
2022/06/21 07:23:21;;;;;;;5.00;1.38;;;20.40;93.60;;;;;;5056123;28;20036;-69
2022/06/21 07:26:07;;;;;;;4.32;1.40;;;20.40;93.50;;;;;;5057579;28;20055;-69
2022/06/21 07:28:55;;;;;;;5.80;1.92;;;20.60;93.40;;;;;;5075440;28;20028;-69
2022/06/21 07:31:32;;;;;;;7.68;1.50;;;21.00;92.40;;;;;;5056957;28;20109;-70
2022/06/21 07:34:10;;;;;;;8.88;1.80;;;21.10;92.20;;;;;;5057635;28;20119;-70
2022/06/21 07:36:43;;;;;;;4.32;2.15;;;21.30;91.40;;;;;;5057342;28;20045;-69
2022/06/21 07:39:37;;;;;;;2.90;1.92;;;20.80;90.90;;;;;;5075119;28;20116;-69
2022/06/21 07:42:14;;;;;;;3.10;1.50;;;20.00;90.90;;;;;;5072025;28;20131;-69
2022/06/21 07:45:01;;;;;;;4.18;1.50;;;20.00;92.60;;;;;;5075061;28;20128;-70
2022/06/21 07:47:37;;;;;;;4.53;1.88;;;20.50;93.20;;;;;;5056937;28;20036;-69
2022/06/21 07:50:17;;;;;;;6.63;1.85;;;20.90;92.20;;;;;;5074912;28;20087;-69
2022/06/21 07:52:50;;;;;;;3.35;1.55;;;21.00;91.30;;;;;;5074906;28;20036;-69
2022/06/21 07:55:19;;;;;;;6.35;2.78;;;21.10;90.50;;;;;;5074915;28;20131;-69
2022/06/21 07:57:52;;;;;;;4.50;1.90;;;21.40;90.60;;;;;;5074787;28;20123;-69
2022/06/21 08:00:21;;;;;;;4.22;2.42;;;21.30;89.30;;;;;;5056815;28;20048;-69
2022/06/21 08:09:21;;;;;;;5.43;1.70;;;22.10;85.90;;;;;;5056861;28;20044;-70
2022/06/21 08:11:48;;;;;;;4.68;1.85;;;22.20;84.50;;;;;;5016895;28;20055;-69
2022/06/21 08:14:15;;;;;;;5.80;2.20;;;22.60;85.00;;;;;;5056565;28;20048;-70
2022/06/21 08:16:54;;;;;;;6.40;2.05;;;22.50;84.60;;;;;;5074375;28;20444;-70
2022/06/21 08:19:30;;;;;;;4.53;2.05;;;22.70;83.60;;;;;;5074449;28;20383;-70
2022/06/21 08:22:01;;;;;;;4.82;1.98;;;21.80;83.60;;;;;;5056151;28;20460;-70
2022/06/21 08:24:50;;;;;;;7.45;1.98;;;21.60;86.00;;;;;;5056605;28;20494;-69
2022/06/21 08:27:36;;;;;;;5.20;1.90;;;22.10;84.00;;;;;;5056450;28;20131;-70
2022/06/21 08:30:10;;;;;;;4.93;1.90;;;22.50;84.30;;;;;;5055914;28;20040;-69
2022/06/21 08:32:53;;;;;;;3.13;1.85;;;22.50;80.20;;;;;;5073747;28;20414;-70
2022/06/21 08:35:26;;;;;;;3.30;1.48;;;22.70;77.60;;;;;;5056169;28;20079;-69
2022/06/21 08:37:56;;;;;;;2.90;1.83;;;22.60;79.50;;;;;;5074341;28;20044;-70
2022/06/21 08:40:41;;;;;;;5.13;1.70;;;22.40;78.00;;;;;;5056066;28;20392;-70
2022/06/21 08:43:46;;;;;;;5.88;1.45;;;22.50;78.10;;;;;;5073915;28;20040;-70
2022/06/21 08:46:49;;;;;;;3.55;1.65;;;22.30;78.10;;;;;;5045336;28;20059;-70
2022/06/21 08:49:23;;;;;;;5.50;2.30;;;22.20;77.70;;;;;;5074082;28;20040;-70
2022/06/21 08:52:08;;;;;;;3.63;1.80;;;22.20;77.40;;;;;;5055707;28;20048;-69
2022/06/21 08:54:43;;;;;;;3.88;1.30;;;22.40;80.10;;;;;;5074071;28;20068;-69
2022/06/21 08:57:13;;;;;;;3.00;1.33;;;22.60;78.40;;;;;;5039290;28;20494;-70
2022/06/21 09:00:02;;;;;;;5.78;1.85;;;22.90;73.90;;;;;;5073820;28;20116;-70
2022/06/21 09:02:56;;;;;;;6.00;1.75;;;23.00;71.90;;;;;;5055621;28;20132;-69
2022/06/21 09:05:50;;;;;;;4.45;1.25;;;23.30;70.50;;;;;;5055719;28;20044;-70
2022/06/21 09:08:30;;;;;;;4.30;1.20;;;23.60;70.70;;;;;;5056089;28;20040;-70
2022/06/21 09:11:23;;;;;;;4.88;1.30;;;23.90;67.90;;;;;;5073160;28;20189;-70
2022/06/21 09:14:09;;;;;;;6.90;1.63;;;23.90;65.50;;;;;;5073617;28;20037;-70
2022/06/21 09:16:47;;;;;;;3.53;1.50;;;24.30;68.70;;;;;;5055493;28;20110;-70
2022/06/21 09:19:47;;;;;;;5.50;1.70;;;24.10;68.40;;;;;;5073258;28;20098;-70
2022/06/21 09:22:39;;;;;;;2.70;1.15;;;24.00;67.10;;;;;;5073234;28;20201;-70
2022/06/21 09:25:22;;;;;;;5.78;1.35;;;23.90;66.10;;;;;;5073228;28;20062;-70
2022/06/21 09:27:51;;;;;;;4.70;1.75;;;23.80;65.90;;;;;;5038669;28;20036;-70
2022/06/21 09:30:46;;;;;;;5.30;1.70;;;23.90;67.10;;;;;;5055218;28;20101;-70
2022/06/21 09:33:33;;;;;;;3.97;1.65;;;23.90;68.50;;;;;;5072899;28;20044;-70
2022/06/21 09:36:10;;;;;;;2.90;1.60;;;24.10;66.20;;;;;;5055017;28;20056;-70
2022/06/21 09:39:07;;;;;;;3.95;1.48;;;23.80;66.80;;;;;;5073123;28;20040;-70
2022/06/21 09:41:56;;;;;;;6.13;2.08;;;23.20;66.20;;;;;;5054849;28;20131;-70
2022/06/21 09:44:37;;;;;;;3.50;1.50;;;22.80;69.00;;;;;;5054234;28;20055;-70
2022/06/21 09:47:09;;;;;;;4.32;1.92;;;22.90;67.50;;;;;;5055033;28;20425;-70
2022/06/21 09:50:00;;;;;;;7.80;2.17;;;23.10;68.10;;;;;;5072836;28;20047;-70
2022/06/21 09:52:56;;;;;;;4.60;1.85;;;23.40;67.60;;;;;;5054676;28;20040;-70
2022/06/21 09:55:46;;;;;;;3.05;0.98;;;23.40;68.40;;;;;;5072640;28;20033;-70
2022/06/21 09:58:28;;;;;;;3.67;1.23;;;23.40;65.90;;;;;;5054784;28;20557;-70
2022/06/21 10:01:12;;;;;;;3.65;1.42;;;23.40;67.30;;;;;;5054444;28;20045;-70
2022/06/21 10:04:08;;;;;;;8.07;1.40;;;23.30;67.70;;;;;;5037807;28;20040;-70
2022/06/21 10:06:55;;;;;;;3.97;1.45;;;23.30;67.60;;;;;;5072368;28;20032;-70
2022/06/21 10:09:33;;;;;;;3.05;1.42;;;23.10;68.50;;;;;;5072205;28;20062;-70
2022/06/21 10:12:45;;;;;;;4.63;1.73;;;23.20;69.00;;;;;;5072004;28;20040;-70
2022/06/21 10:15:50;;;;;;;4.60;1.55;;;23.30;68.00;;;;;;5009487;28;20091;-70
2022/06/21 10:18:27;;;;;;;4.47;1.35;;;23.20;69.90;;;;;;5072090;28;20493;-70
2022/06/21 10:21:02;;;;;;;2.97;1.40;;;23.00;66.60;;;;;;5071696;28;20440;-70
2022/06/21 10:23:46;;;;;;;2.03;1.30;;;22.80;66.00;;;;;;5071923;28;20506;-70
2022/06/21 10:26:35;;;;;;;9.05;2.22;;;22.60;61.70;;;;;;5054279;28;20041;-70
2022/06/21 10:29:38;;;;;;;2.58;1.00;;;22.50;65.60;;;;;;5072038;28;20052;-70
2022/06/21 10:32:16;;;;;;;2.35;1.30;;;22.60;62.10;;;;;;5096574;22;20048;-73
2022/06/21 10:34:58;;;;;;;3.95;1.48;;;22.40;64.30;;;;;;5091133;28;20043;-72
2022/06/21 10:37:29;;;;;;;5.78;2.08;;;22.60;63.40;;;;;;5092531;28;20028;-71
2022/06/21 10:40:10;;;;;;;4.13;1.20;;;22.70;63.80;;;;;;5092236;28;20036;-71
2022/06/21 10:42:50;;;;;;;5.25;1.42;;;22.40;63.20;;;;;;5090768;28;20056;-71
2022/06/21 10:45:41;;;;;;;4.55;1.52;;;22.20;64.00;;;;;;5092082;28;20406;-72
2022/06/21 10:48:28;;;;;;;3.47;1.23;;;22.30;66.50;;;;;;5090932;28;20032;-72
2022/06/21 10:51:25;;;;;;;6.50;1.35;;;22.50;67.50;;;;;;5091618;28;20040;-71
2022/06/21 10:54:20;;;;;;;5.13;1.45;;;22.70;65.00;;;;;;5086741;28;20051;-71
2022/06/21 10:57:15;;;;;;;2.88;1.30;;;22.80;63.90;;;;;;5069224;28;20052;-71
2022/06/21 11:02:50;;;;;;;2.42;1.15;;;23.00;64.50;;;;;;5091999;28;20040;-71
2022/06/21 11:05:40;;;;;;;3.85;1.10;;;23.10;64.20;;;;;;5091915;28;20055;-71
2022/06/21 11:08:46;;;;;;;2.25;0.95;;;22.80;65.90;;;;;;5074153;28;20036;-71
2022/06/21 11:11:37;;;;;;;3.22;1.15;;;22.70;64.10;;;;;;5091628;28;20046;-71
2022/06/21 11:14:43;;;;;;;2.83;0.90;;;22.70;62.30;;;;;;5091968;28;20486;-71
2022/06/21 11:17:11;;;;;;;3.10;1.42;;;22.60;62.50;;;;;;5091995;28;20075;-71
2022/06/21 11:20:11;;;;;;;4.47;1.10;;;22.40;61.80;;;;;;5091736;28;20050;-71
2022/06/21 11:22:50;;;;;;;2.28;1.10;;;22.30;63.90;;;;;;5090535;28;20067;-72
2022/06/21 11:25:38;;;;;;;2.75;1.38;;;22.30;65.50;;;;;;5091927;28;20414;-71
2022/06/21 11:28:24;;;;;;;2.22;1.13;;;22.40;68.40;;;;;;5090631;28;20513;-71
2022/06/21 11:31:07;;;;;;;3.05;0.93;;;22.30;67.40;;;;;;5091640;28;20598;-72
2022/06/21 11:33:43;;;;;;;3.45;1.05;;;22.40;65.80;;;;;;5091535;28;20047;-71
2022/06/21 11:36:17;;;;;;;2.08;0.98;;;22.40;66.00;;;;;;5090263;28;20104;-71
2022/06/21 11:38:51;;;;;;;1.98;0.88;;;22.40;66.80;;;;;;5091534;28;20044;-71
2022/06/21 11:42:04;;;;;;;3.55;1.10;;;22.50;64.00;;;;;;5091364;28;20067;-71
2022/06/21 11:44:19;;;;;;;2.55;1.20;;;22.60;65.20;;;;;;5091123;28;20055;-71
2022/06/21 11:47:06;;;;;;;3.55;0.88;;;22.50;63.90;;;;;;5091636;28;20083;-71
2022/06/21 11:49:48;;;;;;;4.03;1.27;;;22.40;66.60;;;;;;5090500;28;20048;-72
2022/06/21 11:52:41;;;;;;;2.50;1.00;;;22.50;63.60;;;;;;5089941;28;20040;-72
2022/06/21 11:55:35;;;;;;;4.15;1.23;;;22.50;62.70;;;;;;5091485;28;20065;-73
2022/06/21 11:58:13;;;;;;;4.32;1.25;;;22.30;65.00;;;;;;5091323;28;20559;-72
2022/06/21 12:00:55;;;;;;;4.63;1.20;;;22.30;65.10;;;;;;5091049;28;20490;-72
2022/06/21 12:03:33;;;;;;;3.25;1.13;;;22.20;65.20;;;;;;5090095;28;20044;-72
2022/06/21 12:06:34;;;;;;;3.13;0.80;;;22.10;64.90;;;;;;5090290;28;20040;-72
2022/06/21 12:09:21;;;;;;;1.95;0.90;;;22.10;65.00;;;;;;5074245;28;20097;-72
2022/06/21 12:12:07;;;;;;;5.22;1.20;;;22.40;63.90;;;;;;5093559;28;20036;-72
2022/06/21 12:14:47;;;;;;;2.63;0.90;;;22.40;63.60;;;;;;5093625;28;20552;-72
2022/06/21 12:17:29;;;;;;;4.95;1.30;;;22.30;63.90;;;;;;5094986;28;20046;-72
2022/06/21 12:20:05;;;;;;;4.10;1.00;;;22.30;64.90;;;;;;5094703;28;20058;-71
2022/06/21 12:22:44;;;;;;;2.22;1.00;;;22.50;64.20;;;;;;5093537;28;20040;-73
2022/06/21 12:25:16;;;;;;;3.50;1.13;;;22.20;65.60;;;;;;5094041;28;20035;-73
2022/06/21 12:27:41;;;;;;;1.70;0.90;;;22.20;64.60;;;;;;5094855;28;20047;-72
2022/06/21 12:30:21;;;;;;;3.70;0.93;;;22.20;63.80;;;;;;5094414;28;20029;-72
2022/06/21 12:32:49;;;;;;;2.20;0.75;;;22.40;62.00;;;;;;5094313;28;20047;-72
2022/06/21 12:35:17;;;;;;;2.22;0.90;;;22.50;60.80;;;;;;5094708;28;20075;-72
2022/06/21 12:37:51;;;;;;;2.67;1.20;;;22.80;61.00;;;;;;5094870;28;20040;-72
2022/06/21 12:40:31;;;;;;;2.70;1.25;;;22.90;60.40;;;;;;5094546;28;20570;-74
2022/06/21 12:43:31;;;;;;;6.00;0.80;;;23.00;60.00;;;;;;5093260;28;20048;-74
2022/06/21 12:46:13;;;;;;;4.30;1.25;;;22.90;59.40;;;;;;5094928;28;20036;-73
2022/06/21 12:49:00;;;;;;;2.42;0.88;;;22.90;60.50;;;;;;5094861;28;20502;-72
2022/06/21 12:51:53;;;;;;;2.70;0.85;;;22.90;62.80;;;;;;5076141;28;20043;-73
2022/06/21 12:54:38;;;;;;;3.58;1.27;;;22.70;59.90;;;;;;5094269;28;20046;-73
2022/06/21 12:57:22;;;;;;;2.58;1.10;;;22.90;61.50;;;;;;5094224;28;20036;-72
2022/06/21 13:00:12;;;;;;;3.17;1.30;;;22.80;63.00;;;;;;5093111;28;20116;-72
2022/06/21 13:02:54;;;;;;;2.17;1.10;;;22.70;62.50;;;;;;5092658;28;20127;-72
2022/06/21 13:06:00;;;;;;;5.65;1.00;;;22.60;63.60;;;;;;5094141;28;20071;-72
2022/06/21 13:08:53;;;;;;;2.13;1.08;;;22.60;65.50;;;;;;5094402;28;20074;-72
2022/06/21 13:11:44;;;;;;;4.15;0.80;;;22.70;62.10;;;;;;5092748;28;20406;-73
2022/06/21 13:14:51;;;;;;;6.95;1.13;;;22.60;61.10;;;;;;5092598;28;20040;-72
2022/06/21 13:17:40;;;;;;;3.22;1.00;;;22.60;62.30;;;;;;5059477;28;20131;-72
2022/06/21 13:20:27;;;;;;;3.35;0.98;;;22.70;62.90;;;;;;5093375;28;20040;-73
2022/06/21 13:23:17;;;;;;;2.08;0.85;;;22.00;59.90;;;;;;5093404;28;20502;-72
2022/06/21 13:26:13;;;;;;;1.85;0.85;;;22.30;60.30;;;;;;5093523;28;20514;-72
2022/06/21 13:29:02;;;;;;;2.65;0.90;;;22.20;60.30;;;;;;5093615;28;20048;-72
2022/06/21 13:31:36;;;;;;;2.08;1.10;;;22.20;60.70;;;;;;5093469;28;20069;-72
2022/06/21 13:34:06;;;;;;;2.05;0.82;;;22.10;61.50;;;;;;5093309;28;20040;-74
2022/06/21 13:36:45;;;;;;;2.83;0.68;;;22.10;61.30;;;;;;5075219;28;20040;-72
2022/06/21 13:39:14;;;;;;;2.75;1.05;;;22.30;61.20;;;;;;5092073;28;20093;-72
2022/06/21 13:44:48;;;;;;;2.63;0.60;;;22.30;63.60;;;;;;5092184;28;20052;-72
2022/06/21 13:47:17;;;;;;;3.10;1.00;;;22.50;65.30;;;;;;5093262;28;20044;-73
2022/06/21 13:49:49;;;;;;;3.35;0.75;;;22.60;64.10;;;;;;5092168;28;20071;-72
2022/06/21 13:52:24;;;;;;;2.15;0.95;;;22.70;64.90;;;;;;5074554;28;20040;-72
2022/06/21 13:55:16;;;;;;;1.80;0.85;;;22.60;64.30;;;;;;5093085;28;20097;-72